El Portal, CA

6:50 PM PDT on August 27, 2015 (GMT -0700)
Darrah-Lushmeadows | | Change Station
CLOSE
Current Station
Personal Weather Station
Location: Mariposa, CA
Elevation: 3313 ft
Nearby Weather Stations

Elev 3313 ft 37.51 °N, 119.83 °W | Updated 37 seconds ago

Clear
Clear
85.8 °F
Feels Like 83 °F
N
0.0
Wind Variable Wind from SE
Gusts 4.0 mph

Today
High -- | Low -- °F
--% Chance of Precip.
Yesterday
High -- | Low -- °F
Precip. -- in
6:24 AM 7:35 PM
Waxing Gibbous, 96% visible
Pressure 30.01 in
Visibility 10.0 miles
Clouds Clear
Heat Index 83 °F
Dew Point 36 °F
Humidity 17%
Rainfall 0.00 in
Snow Depth Not available.
UV 1 out of 12
Pollen 8.90 out of 12
Air Quality Not available.
Flu Activity Not available.
METAR KO22 280135Z AUTO 31007KT 10SM CLR 33/05 A3001 RMK AO1
Pressure 30.01 in
Visibility 10.0 miles
Clouds Clear
Heat Index 83 °F
Dew Point 36 °F
Humidity 17%
Rainfall 0.00 in
Snow Depth Not available.
UV 1 out of 12
Pollen 8.90 out of 12
Air Quality Not available.
Flu Activity Not available.
METAR KO22 280135Z AUTO 31007KT 10SM CLR 33/05 A3001 RMK AO1

10-Day Weather Forecast

×

Almanac

Astronomy

Aug. 27, 2015 Rise Set
Actual Time
Civil Twilight
Nautical Twilight
Astronomical Twilight
Moon
Length of Visible Light
Length of Day
Tomorrow will be .
, % of the Moon is Illuminated

Today's Extremes

State Highs State Lows

Community

WunderPhotos

Upload Photos

1,850,296 photos uploaded!

WunderBlogs® & News

Nearby

Air Quality

  Air Quality AQ Index Pollutant
Not available.

Snow Depth

Station Depth Elevation

Earthquake Activity

City Distance Mag. Time & Date
Minimum magnitude displayed is 2.5.

Coastal Water Temperatures

Place Temperature

Stations

Nearby Weather Stations

Station Location Temp. Windchill Dew Point Humidity Wind Precip. Elev Updated Type